Time;durP1;ratioP1;P1;durP2;ratioP2;P2;SDS_P1;SDS_P2;PMS_P1;PMS_P2;Temp;Humidity;BMP_temperature;BMP_pressure;BME280_temperature;BME280_humidity;BME280_pressure;Samples;Min_cycle;Max_cycle;Signal;HPM_P1;HPM_P2
2022/01/14 00:00:13;;;;;;;11.18;5.78;;;;;;;-1.78;81.22;97303.78;5054041;28;20053;-80
2022/01/14 00:02:40;;;;;;;11.75;5.53;;;;;;;-1.82;81.18;97273.03;5053009;28;20045;-81
2022/01/14 00:05:07;;;;;;;12.73;5.60;;;;;;;-1.68;81.40;97294.47;5053436;28;20142;-80
2022/01/14 00:07:34;;;;;;;14.32;5.18;;;;;;;-1.58;81.58;97282.66;5035892;28;20052;-80
2022/01/14 00:10:02;;;;;;;18.23;6.53;;;;;;;-1.62;81.64;97256.16;5053271;28;20084;-80
2022/01/14 00:12:36;;;;;;;12.48;6.03;;;;;;;-1.44;81.37;97281.09;5055463;28;20076;-81
2022/01/14 00:15:23;;;;;;;11.52;5.45;;;;;;;-1.46;81.21;97268.25;5055949;28;20052;-80
2022/01/14 00:17:54;;;;;;;8.40;4.65;;;;;;;-1.39;81.64;97276.00;5056066;28;20139;-80
2022/01/14 00:20:22;;;;;;;11.80;4.88;;;;;;;-1.36;81.65;97260.66;5059799;28;20049;-80
2022/01/14 00:22:49;;;;;;;15.18;5.53;;;;;;;-1.30;81.47;97253.03;5056451;28;20080;-80
2022/01/14 00:33:35;;;;;;;7.88;4.60;;;;;;;-1.22;81.72;97219.81;5054458;28;20053;-82
2022/01/14 00:36:02;;;;;;;8.30;5.10;;;;;;;-1.18;81.78;97201.03;5053749;28;20064;-80
2022/01/14 00:38:29;;;;;;;8.25;4.60;;;;;;;-1.15;81.61;97201.91;5053124;28;20065;-81
2022/01/14 00:40:55;;;;;;;7.43;4.25;;;;;;;-1.13;81.50;97202.78;5053687;28;20101;-79
2022/01/14 00:43:22;;;;;;;10.63;4.38;;;;;;;-1.07;81.69;97184.88;5053066;28;20568;-80
2022/01/14 00:45:51;;;;;;;8.05;4.95;;;;;;;-1.05;81.83;97179.78;5053250;28;20058;-80
2022/01/14 00:48:20;;;;;;;8.23;4.63;;;;;;;-1.01;81.46;97176.41;5053458;28;20087;-80
2022/01/14 00:50:47;;;;;;;8.25;4.38;;;;;;;-0.97;81.61;97172.13;5053748;28;20140;-80
2022/01/14 00:53:14;;;;;;;9.38;4.18;;;;;;;-1.06;81.72;97148.16;5053237;28;20068;-80
2022/01/14 00:55:53;;;;;;;7.38;4.00;;;;;;;-1.01;81.92;97140.53;5035884;28;20045;-80
2022/01/14 01:01:05;;;;;;;7.93;4.63;;;;;;;-0.85;81.61;97144.00;5052954;28;20044;-80
2022/01/14 01:03:33;;;;;;;6.72;4.18;;;;;;;-1.00;81.57;97110.63;5038154;28;20059;-81
2022/01/14 01:06:01;;;;;;;8.80;4.70;;;;;;;-0.82;81.76;97120.94;5054025;28;20499;-81
2022/01/14 01:08:30;;;;;;;7.28;4.40;;;;;;;-0.70;82.10;97127.84;5053229;28;20056;-82
2022/01/14 01:10:56;;;;;;;8.38;4.22;;;;;;;-0.66;81.95;97140.69;5053652;28;20098;-83
2022/01/14 01:13:28;;;;;;;6.75;3.75;;;;;;;-0.66;81.70;97111.63;5053309;28;20084;-83
2022/01/14 01:15:56;;;;;;;7.93;3.88;;;;;;;-0.57;81.94;97121.91;5055986;28;20053;-82
2022/01/14 01:18:23;;;;;;;5.35;3.88;;;;;;;-0.55;81.71;97116.78;5053942;28;20087;-83
2022/01/14 01:20:51;;;;;;;7.65;3.90;;;;;;;-0.58;81.89;97106.50;5053120;28;20049;-84
2022/01/14 01:23:18;;;;;;;6.93;3.88;;;;;;;-0.50;82.00;97104.84;5054395;28;20091;-82
2022/01/14 01:26:08;;;;;;;8.70;3.88;;;;;;;-0.48;81.92;97078.34;5039001;28;20578;-83
2022/01/14 01:28:41;;;;;;;9.90;3.92;;;;;;;-0.37;81.91;97072.38;5056173;28;20055;-82
2022/01/14 01:31:35;;;;;;;5.38;3.50;;;;;;;-0.38;81.57;97043.31;5056201;28;20491;-82
2022/01/14 01:33:56;;;;;;;5.78;3.13;;;;;;;-0.34;81.70;97041.63;5056531;28;20044;-81
2022/01/14 01:36:22;;;;;;;10.40;4.00;;;;;;;-0.33;82.21;97031.34;5056323;28;20140;-81
2022/01/14 01:38:49;;;;;;;4.95;3.65;;;;;;;-0.30;81.86;97031.38;5056181;28;20064;-81
2022/01/14 01:41:17;;;;;;;4.70;3.22;;;;;;;-0.19;81.50;97018.53;5038005;28;20104;-81
2022/01/14 01:43:50;;;;;;;6.10;3.50;;;;;;;-0.18;82.32;97030.50;5056042;28;20102;-81
2022/01/14 01:46:23;;;;;;;5.65;3.38;;;;;;;-0.13;81.92;97041.66;5057289;28;20502;-83
2022/01/14 01:48:51;;;;;;;7.13;3.70;;;;;;;-0.08;82.04;97045.06;5056697;28;20056;-80
2022/01/14 01:51:20;;;;;;;5.93;3.60;;;;;;;-0.02;82.12;97042.50;5080294;28;20037;-81
2022/01/14 01:53:47;;;;;;;6.80;3.35;;;;;;;0.03;82.21;97024.53;5080434;28;20044;-82
2022/01/14 01:56:15;;;;;;;5.95;3.80;;;;;;;0.05;82.11;97016.84;5071727;28;20056;-80
2022/01/14 01:58:43;;;;;;;5.28;3.40;;;;;;;0.01;82.06;97003.13;5056142;28;20053;-80
2022/01/14 02:01:10;;;;;;;5.40;3.38;;;;;;;0.03;82.26;96991.16;5057188;28;20063;-81
2022/01/14 02:03:38;;;;;;;6.53;3.60;;;;;;;0.08;82.36;96999.69;5055625;28;20049;-82
2022/01/14 02:06:06;;;;;;;6.10;3.67;;;;;;;0.11;82.15;96961.22;5056215;28;20053;-79
2022/01/14 02:08:33;;;;;;;6.75;3.53;;;;;;;0.07;82.41;96925.28;5055484;28;20060;-81
2022/01/14 02:11:00;;;;;;;6.60;3.70;;;;;;;0.24;82.65;96966.31;5055172;28;20048;-80
2022/01/14 02:13:27;;;;;;;8.20;4.00;;;;;;;0.30;82.77;96989.41;5055343;28;20053;-80
2022/01/14 02:23:52;;;;;;;5.63;3.63;;;;;;;0.43;83.17;96968.00;5055138;28;20503;-80
2022/01/14 02:26:21;;;;;;;8.48;3.85;;;;;;;0.33;83.11;96941.47;5037468;28;20498;-80
2022/01/14 02:28:49;;;;;;;6.65;3.90;;;;;;;0.44;83.24;96951.72;5037678;28;20053;-80
2022/01/14 02:31:17;;;;;;;6.35;3.95;;;;;;;0.49;83.31;96932.00;5055164;28;20148;-79
2022/01/14 02:33:44;;;;;;;6.45;3.50;;;;;;;0.55;83.37;96920.84;5055263;28;20079;-79
2022/01/14 02:36:11;;;;;;;6.53;3.65;;;;;;;0.45;83.58;96885.78;5036517;28;20110;-80
2022/01/14 02:38:39;;;;;;;6.38;3.85;;;;;;;0.61;83.72;96902.84;5054748;28;20060;-81
2022/01/14 02:41:05;;;;;;;6.57;3.38;;;;;;;0.62;83.36;96907.09;5037140;28;20053;-80
2022/01/14 02:43:34;;;;;;;5.88;3.28;;;;;;;0.56;83.93;96889.16;5054588;28;20151;-81
2022/01/14 02:46:04;;;;;;;6.25;3.80;;;;;;;0.52;83.53;96878.06;5036851;28;20064;-82
2022/01/14 02:48:31;;;;;;;5.80;3.83;;;;;;;0.62;84.14;96896.84;5054037;28;20450;-82
2022/01/14 02:51:02;;;;;;;6.32;3.47;;;;;;;0.65;84.08;96871.16;5036720;28;20049;-81
2022/01/14 02:56:08;;;;;;;4.53;3.38;;;;;;;0.67;83.73;96871.13;5055453;28;20053;-83
2022/01/14 02:58:37;;;;;;;6.68;3.70;;;;;;;0.72;84.20;96869.41;5055005;28;20056;-83
2022/01/14 03:01:11;;;;;;;6.50;3.47;;;;;;;0.70;84.19;96846.28;5056299;28;20053;-82
2022/01/14 03:03:43;;;;;;;6.82;3.70;;;;;;;0.73;83.76;96855.66;5054685;28;20088;-82
2022/01/14 03:06:11;;;;;;;5.53;2.95;;;;;;;0.72;83.80;96852.25;5056247;28;20157;-80
2022/01/14 03:08:42;;;;;;;4.43;2.90;;;;;;;0.81;83.90;96831.63;5037420;28;20049;-80
2022/01/14 03:11:12;;;;;;;4.88;2.42;;;;;;;0.74;84.04;96814.56;5053921;28;20049;-80
2022/01/14 03:13:39;;;;;;;3.35;2.58;;;;;;;0.88;84.00;96818.75;5053897;28;20060;-79
2022/01/14 03:16:06;;;;;;;4.20;2.55;;;;;;;0.91;83.98;96814.44;5053933;28;20076;-81
2022/01/14 03:18:44;;;;;;;3.67;2.35;;;;;;;0.94;83.97;96795.56;5035802;28;20489;-81
2022/01/14 03:21:13;;;;;;;2.33;2.00;;;;;;;0.89;83.78;96785.34;5053885;28;20053;-80
2022/01/14 03:23:47;;;;;;;2.37;1.80;;;;;;;1.00;83.91;96793.81;5053592;28;20107;-81
2022/01/14 03:26:17;;;;;;;3.20;1.98;;;;;;;1.02;83.70;96798.94;5053720;28;20049;-81
2022/01/14 03:28:44;;;;;;;2.90;2.03;;;;;;;0.96;84.06;96776.69;5053412;28;20053;-81
2022/01/14 03:31:11;;;;;;;3.25;2.03;;;;;;;1.06;83.93;96795.50;5053621;28;20646;-80
2022/01/14 03:33:38;;;;;;;2.58;1.90;;;;;;;1.06;83.75;96780.06;5053362;28;20052;-80
2022/01/14 03:36:06;;;;;;;2.85;1.80;;;;;;;1.12;83.91;96781.72;5053834;28;20049;-79
2022/01/14 03:38:34;;;;;;;2.72;2.08;;;;;;;1.09;83.73;96753.47;5053506;28;20067;-79
2022/01/14 03:41:02;;;;;;;2.50;1.75;;;;;;;1.18;84.08;96741.41;5053777;28;20053;-80
2022/01/14 03:43:30;;;;;;;3.55;2.83;;;;;;;1.25;83.74;96743.88;5053308;28;20053;-81
2022/01/14 03:45:58;;;;;;;4.65;2.20;;;;;;;1.31;83.81;96748.97;5052992;28;20510;-80
2022/01/14 03:48:25;;;;;;;4.47;2.38;;;;;;;1.32;83.27;96737.84;5053218;28;20152;-81
2022/01/14 03:50:52;;;;;;;6.28;2.63;;;;;;;1.38;83.66;96730.06;5051964;28;20102;-81
2022/01/14 03:53:19;;;;;;;6.78;3.30;;;;;;;1.38;83.54;96712.06;5053349;28;20077;-79
2022/01/14 03:55:46;;;;;;;5.28;3.25;;;;;;;1.42;83.35;96712.00;5053020;28;20053;-80
2022/01/14 03:58:33;;;;;;;7.28;2.97;;;;;;;1.43;83.51;96725.72;5053267;28;20045;-79
2022/01/14 04:01:00;;;;;;;5.25;2.78;;;;;;;1.45;83.15;96708.53;5019325;28;20072;-79
2022/01/14 04:03:27;;;;;;;5.15;2.63;;;;;;;1.49;83.33;96707.66;5051702;28;20075;-81
2022/01/14 04:05:54;;;;;;;3.38;2.38;;;;;;;1.53;83.41;96700.75;5051571;28;20080;-79
2022/01/14 04:08:20;;;;;;;4.10;2.55;;;;;;;1.58;83.22;96696.41;5052891;28;20064;-81
2022/01/14 04:10:50;;;;;;;2.65;2.22;;;;;;;1.51;83.28;96682.75;5052878;28;20053;-80
2022/01/14 04:13:22;;;;;;;4.68;2.67;;;;;;;1.64;82.88;96699.75;5052937;28;20147;-80
2022/01/14 04:15:52;;;;;;;4.35;2.90;;;;;;;1.68;83.08;96676.53;5053508;28;20422;-77
2022/01/14 04:18:20;;;;;;;6.93;2.95;;;;;;;1.70;82.87;96683.41;5053131;28;20503;-82
2022/01/14 04:20:49;;;;;;;4.07;3.13;;;;;;;1.71;82.83;96656.78;5051425;28;20110;-82
2022/01/14 04:23:19;;;;;;;5.50;3.00;;;;;;;1.70;82.88;96644.78;5051421;28;20051;-80
2022/01/14 04:25:56;;;;;;;6.20;2.88;;;;;;;1.49;82.95;96609.91;5052885;28;20083;-80
2022/01/14 04:28:26;;;;;;;5.47;2.75;;;;;;;1.69;82.69;96632.78;5053011;28;20055;-80
2022/01/14 04:30:56;;;;;;;3.15;2.60;;;;;;;1.75;82.71;96648.16;5053061;28;20092;-81
2022/01/14 04:33:24;;;;;;;3.72;2.58;;;;;;;1.73;82.78;96626.72;5052641;28;20083;-81
2022/01/14 04:35:52;;;;;;;4.65;2.70;;;;;;;1.78;82.89;96645.53;5052414;28;20057;-81
2022/01/14 04:38:19;;;;;;;4.43;2.22;;;;;;;1.66;82.71;96611.38;5052641;28;20067;-81
2022/01/14 04:40:46;;;;;;;3.03;2.30;;;;;;;1.81;83.03;96642.09;5052894;28;20080;-80
2022/01/14 04:43:17;;;;;;;2.75;2.20;;;;;;;1.77;82.53;96636.13;5053088;28;20059;-82
2022/01/14 04:48:23;;;;;;;7.15;3.47;;;;;;;1.48;82.37;96561.03;5037427;28;20049;-81
2022/01/14 04:50:54;;;;;;;5.18;2.97;;;;;;;1.78;82.97;96598.34;5051121;28;20124;-81
2022/01/14 04:53:22;;;;;;;4.57;2.85;;;;;;;1.69;82.37;96585.63;5052722;28;20064;-80
2022/01/14 04:55:50;;;;;;;3.30;2.80;;;;;;;1.78;82.79;96604.34;5052960;28;20506;-80
2022/01/14 04:58:18;;;;;;;4.57;2.90;;;;;;;1.77;82.84;96596.66;5056695;28;20080;-82
2022/01/14 05:00:45;;;;;;;4.85;2.42;;;;;;;1.81;82.76;96588.03;5060104;28;20144;-81
2022/01/14 05:03:12;;;;;;;5.22;2.80;;;;;;;1.70;83.34;96571.88;5039784;28;20092;-82
2022/01/14 05:05:43;;;;;;;6.00;3.33;;;;;;;1.62;82.28;96559.13;5057185;28;20053;-81
2022/01/14 05:08:15;;;;;;;;;;;;;;;1.61;82.93;96581.44;5040113;28;20107;-83
2022/01/14 05:13:25;;;;;;;2.65;2.20;;;;;;;1.70;83.12;96565.03;5057548;28;20056;-84
2022/01/14 05:15:54;;;;;;;4.72;2.72;;;;;;;1.66;82.98;96550.50;5057643;28;20060;-85
2022/01/14 05:18:25;;;;;;;4.97;2.70;;;;;;;1.75;82.98;96564.94;5039858;28;20448;-84
2022/01/14 05:20:53;;;;;;;5.13;2.42;;;;;;;1.70;82.94;96547.00;5056718;28;20057;-85
2022/01/14 05:23:20;;;;;;;4.57;2.72;;;;;;;1.82;83.33;96558.84;5056644;28;20477;-84
2022/01/14 05:25:47;;;;;;;3.55;2.40;;;;;;;1.68;83.10;96523.03;5055692;28;20049;-84
2022/01/14 05:28:14;;;;;;;5.72;3.05;;;;;;;1.90;83.21;96563.88;5039583;28;20488;-84
2022/01/14 05:30:41;;;;;;;6.25;3.30;;;;;;;1.95;83.07;96551.78;5056756;28;20049;-85
2022/01/14 05:33:08;;;;;;;6.47;3.22;;;;;;;1.94;83.06;96539.78;5057290;28;20492;-85
2022/01/14 05:35:35;;;;;;;4.97;2.85;;;;;;;1.94;82.84;96522.63;5038630;28;20057;-85
2022/01/14 05:38:02;;;;;;;5.28;3.20;;;;;;;2.01;82.69;96518.22;5056986;28;20554;-85
2022/01/14 05:40:30;;;;;;;5.60;3.17;;;;;;;2.03;82.55;96530.19;5056805;28;20438;-85
2022/01/14 05:42:57;;;;;;;5.28;3.55;;;;;;;1.97;82.44;96508.84;5057495;28;20049;-85
2022/01/14 05:45:25;;;;;;;4.72;3.33;;;;;;;1.92;82.41;96488.31;5056332;28;20049;-85
2022/01/14 05:47:52;;;;;;;5.32;3.13;;;;;;;2.06;82.82;96485.50;5055139;28;20061;-84
2022/01/14 05:50:23;;;;;;;5.25;3.25;;;;;;;1.95;82.29;96475.41;5056743;28;20067;-85
2022/01/14 05:52:51;;;;;;;6.50;3.70;;;;;;;2.08;82.40;96483.75;5057015;28;20115;-85
2022/01/14 05:55:20;;;;;;;6.55;3.20;;;;;;;2.10;82.73;96482.00;5058978;28;20044;-85
2022/01/14 05:57:48;;;;;;;5.85;3.55;;;;;;;2.08;82.11;96491.50;5058124;28;20053;-86
2022/01/14 06:00:17;;;;;;;6.70;3.72;;;;;;;2.08;81.99;96477.78;5057680;28;20048;-85
2022/01/14 06:02:46;;;;;;;6.78;4.22;;;;;;;2.02;82.36;96483.88;5057092;28;20064;-85
2022/01/14 06:05:13;;;;;;;5.78;3.40;;;;;;;2.08;82.24;96476.03;5039295;28;20053;-85
2022/01/14 06:07:40;;;;;;;6.32;3.42;;;;;;;2.10;82.01;96483.75;5056775;28;20045;-86
2022/01/14 06:10:08;;;;;;;5.25;3.30;;;;;;;2.11;82.30;96463.13;5056758;28;20473;-86
2022/01/14 06:12:35;;;;;;;5.75;3.22;;;;;;;2.12;82.23;96453.66;5057073;28;20056;-86
2022/01/14 06:15:03;;;;;;;3.92;2.35;;;;;;;2.16;81.88;96450.16;5056968;28;20151;-87
2022/01/14 06:17:30;;;;;;;6.05;3.70;;;;;;;2.23;82.11;96455.16;5056759;28;20064;-85
2022/01/14 06:19:57;;;;;;;4.97;2.80;;;;;;;2.25;81.96;96432.81;5056059;28;20489;-85
2022/01/14 06:22:24;;;;;;;5.78;2.45;;;;;;;2.24;81.49;96419.97;5057236;28;20103;-87
2022/01/14 06:24:51;;;;;;;4.93;2.45;;;;;;;2.23;81.79;96408.81;5060952;28;20152;-87
2022/01/14 06:27:18;;;;;;;7.57;2.50;;;;;;;2.29;81.71;96417.31;5069432;28;20029;-84
2022/01/14 06:29:45;;;;;;;4.18;2.20;;;;;;;2.27;81.90;96404.47;5079568;28;20063;-85
2022/01/14 06:32:12;;;;;;;2.70;2.03;;;;;;;2.23;82.11;96411.38;5078589;28;20052;-84
2022/01/14 06:34:39;;;;;;;5.65;2.40;;;;;;;2.25;81.54;96396.75;5070998;28;20064;-85
2022/01/14 06:37:06;;;;;;;2.85;1.88;;;;;;;2.36;81.65;96391.41;5057963;28;20498;-84
2022/01/14 06:39:33;;;;;;;3.33;1.95;;;;;;;2.39;81.62;96387.94;5057165;28;20126;-84
2022/01/14 06:42:01;;;;;;;4.18;1.85;;;;;;;2.33;81.36;96367.44;5055025;28;20056;-84
2022/01/14 06:44:27;;;;;;;2.35;1.70;;;;;;;2.29;81.47;96345.19;5057397;28;20144;-84
2022/01/14 06:46:54;;;;;;;2.92;2.30;;;;;;;2.23;81.54;96344.44;5056187;28;20075;-84
2022/01/14 06:49:21;;;;;;;3.33;2.05;;;;;;;2.29;81.53;96338.31;5057595;28;20068;-89
2022/01/14 06:51:48;;;;;;;3.38;1.83;;;;;;;2.38;81.75;96348.44;5058239;28;20140;-84
2022/01/14 06:54:14;;;;;;;2.83;1.98;;;;;;;2.34;81.50;96339.06;5057735;28;20057;-85
2022/01/14 06:56:41;;;;;;;5.00;2.10;;;;;;;2.31;81.76;96333.16;5060625;28;20106;-83
2022/01/14 06:59:12;;;;;;;2.45;2.15;;;;;;;2.25;81.82;96316.06;5059844;28;20126;-85
2022/01/14 07:01:39;;;;;;;2.95;1.90;;;;;;;2.29;81.52;96315.13;5058853;28;20458;-83
2022/01/14 07:04:07;;;;;;;4.35;1.85;;;;;;;2.31;81.58;96317.69;5058677;28;20072;-86
2022/01/14 07:06:34;;;;;;;4.43;1.88;;;;;;;2.21;81.64;96312.69;5055457;28;20128;-86
2022/01/14 07:09:00;;;;;;;2.67;1.98;;;;;;;2.28;82.25;96316.03;5057172;28;20465;-87
2022/01/14 07:11:34;;;;;;;2.25;1.77;;;;;;;2.31;82.03;96313.38;5055286;28;20064;-86
2022/01/14 07:14:03;;;;;;;7.93;1.92;;;;;;;2.38;81.67;96302.06;5054924;28;20430;-86
2022/01/14 07:16:30;;;;;;;3.10;2.00;;;;;;;2.39;81.71;96308.09;5055113;28;20060;-85
2022/01/14 07:18:57;;;;;;;3.90;2.47;;;;;;;2.35;81.70;96285.84;5055087;28;20143;-84
2022/01/14 07:21:24;;;;;;;3.13;1.67;;;;;;;2.44;81.51;96293.38;5055589;28;20147;-86
2022/01/14 07:23:51;;;;;;;3.63;2.08;;;;;;;2.34;81.40;96292.69;5056984;28;20057;-86
2022/01/14 07:26:19;;;;;;;2.83;2.13;;;;;;;2.51;81.90;96309.53;5056464;28;20098;-85
2022/01/14 07:28:46;;;;;;;4.43;2.30;;;;;;;2.38;81.57;96271.16;5056535;28;20057;-85
2022/01/14 07:31:13;;;;;;;4.60;2.28;;;;;;;2.48;81.84;96283.84;5037692;28;20057;-85
2022/01/14 07:33:40;;;;;;;2.90;1.90;;;;;;;2.45;81.31;96264.13;5053969;28;20052;-83
2022/01/14 07:36:07;;;;;;;4.80;2.40;;;;;;;2.52;81.27;96270.00;5055165;28;20538;-84
2022/01/14 07:38:34;;;;;;;3.63;1.88;;;;;;;2.56;81.13;96279.34;5054580;28;20061;-84
2022/01/14 07:41:01;;;;;;;2.45;2.05;;;;;;;2.57;81.13;96248.41;5054323;28;20144;-85
2022/01/14 07:43:29;;;;;;;4.18;2.72;;;;;;;2.55;81.24;96249.31;5053937;28;20395;-82
2022/01/14 07:45:56;;;;;;;6.90;2.45;;;;;;;2.53;81.24;96244.19;5053850;28;20048;-86
2022/01/14 07:48:26;;;;;;;5.30;2.78;;;;;;;2.55;81.32;96244.19;5058373;28;20064;-84
2022/01/14 07:50:54;;;;;;;3.55;2.65;;;;;;;2.56;81.21;96230.41;5053285;28;20099;-88
2022/01/14 07:53:21;;;;;;;6.20;3.30;;;;;;;2.62;81.53;96220.81;5035841;28;20139;-84
2022/01/14 07:55:48;;;;;;;4.90;3.00;;;;;;;2.73;81.29;96230.00;5043925;28;20107;-82
2022/01/14 07:58:16;;;;;;;3.50;2.60;;;;;;;2.74;81.02;96193.06;5043851;28;20060;-85
2022/01/14 08:00:43;;;;;;;6.47;3.05;;;;;;;2.81;80.17;96197.19;5034665;28;20057;-84
2022/01/14 08:03:10;;;;;;;3.95;2.53;;;;;;;2.89;80.55;96203.00;5054240;28;20049;-84
2022/01/14 08:05:37;;;;;;;3.97;2.38;;;;;;;2.90;80.21;96198.69;5054614;28;20052;-83
2022/01/14 08:08:07;;;;;;;6.38;3.47;;;;;;;2.82;79.98;96180.84;5054570;28;20056;-85
2022/01/14 08:10:35;;;;;;;12.25;4.65;;;;;;;2.97;80.35;96197.63;5040689;28;20053;-82
2022/01/14 08:13:03;;;;;;;14.77;6.05;;;;;;;2.93;79.87;96171.09;5066224;28;20095;-82
2022/01/14 08:15:31;;;;;;;6.20;3.50;;;;;;;3.10;79.11;96178.41;5051969;28;20045;-84
2022/01/14 08:18:00;;;;;;;4.40;2.70;;;;;;;3.13;79.16;96164.59;5068868;28;20053;-82
2022/01/14 08:20:28;;;;;;;6.73;3.43;;;;;;;3.15;78.94;96175.72;5067122;28;20126;-82
2022/01/14 08:22:58;;;;;;;8.75;3.70;;;;;;;3.04;79.09;96155.34;5065689;28;20092;-85
2022/01/14 08:25:32;;;;;;;7.90;4.22;;;;;;;3.15;78.92;96166.22;5051241;28;20056;-83
2022/01/14 08:27:59;;;;;;;7.15;3.53;;;;;;;3.14;79.08;96158.53;5034966;28;20120;-83
2022/01/14 08:30:26;;;;;;;5.10;2.92;;;;;;;3.15;78.97;96157.66;5047372;28;20055;-83
2022/01/14 08:32:53;;;;;;;1.88;1.58;;;;;;;3.12;78.50;96152.56;5052416;28;20518;-84
2022/01/14 08:35:20;;;;;;;4.40;2.28;;;;;;;3.04;78.51;96139.88;5053398;28;20057;-83
2022/01/14 08:37:47;;;;;;;6.07;2.83;;;;;;;3.10;78.66;96136.28;5053865;28;20068;-83
2022/01/14 08:40:14;;;;;;;10.57;4.05;;;;;;;3.15;78.89;96121.56;5052446;28;20522;-85
2022/01/14 08:42:44;;;;;;;5.03;3.05;;;;;;;3.17;78.59;96106.88;5032800;28;20056;-84
2022/01/14 08:45:12;;;;;;;3.97;2.25;;;;;;;3.19;78.66;96077.56;5033712;28;20548;-86
2022/01/14 08:47:40;;;;;;;4.75;2.70;;;;;;;3.31;77.82;96078.13;5053788;28;20147;-88
2022/01/14 08:50:07;;;;;;;10.13;3.90;;;;;;;3.24;77.38;96062.81;5051911;28;20057;-85
2022/01/14 08:52:34;;;;;;;14.45;6.13;;;;;;;3.28;77.21;96067.00;5036881;28;20061;-87
2022/01/14 08:55:01;;;;;;;10.15;4.70;;;;;;;3.31;77.04;96060.91;5038524;28;20145;-83
2022/01/14 08:57:28;;;;;;;6.90;3.25;;;;;;;3.32;76.96;96072.91;5040314;28;20102;-86
2022/01/14 08:59:55;;;;;;;5.60;3.15;;;;;;;3.29;77.20;96049.78;5051705;28;20056;-85
2022/01/14 09:02:23;;;;;;;27.38;4.47;;;;;;;3.37;77.20;96059.88;5051310;28;20057;-82
2022/01/14 09:04:50;;;;;;;33.00;3.97;;;;;;;3.32;76.58;96065.19;5049100;28;20049;-82
2022/01/14 09:07:17;;;;;;;9.20;3.90;;;;;;;3.36;77.09;96065.94;5052167;28;20048;-81
2022/01/14 09:09:44;;;;;;;111.43;15.65;;;;;;;3.44;76.51;96062.25;5052876;28;20092;-83
2022/01/14 09:12:14;;;;;;;22.10;5.72;;;;;;;3.44;76.51;96038.16;5032755;28;20050;-81
2022/01/14 09:14:41;;;;;;;23.90;5.53;;;;;;;3.42;76.14;96027.03;5038785;28;20049;-82
2022/01/14 09:17:07;;;;;;;19.08;5.25;;;;;;;3.42;76.07;96019.31;5053092;28;20049;-83
2022/01/14 09:19:36;;;;;;;18.60;7.53;;;;;;;3.53;75.83;96039.63;5052910;28;20075;-84
2022/01/14 09:22:17;;;;;;;8.23;2.67;;;;;;;3.54;76.66;96031.00;5035569;28;20056;-85
2022/01/14 09:24:49;;;;;;;11.65;3.25;;;;;;;3.63;75.79;96010.91;5051376;28;20617;-81
2022/01/14 09:27:16;;;;;;;5.07;2.08;;;;;;;3.72;75.52;96024.44;5052073;28;20141;-82
2022/01/14 09:29:44;;;;;;;6.78;2.20;;;;;;;3.63;75.39;96005.75;5045218;28;20096;-83
2022/01/14 09:32:11;;;;;;;6.72;2.28;;;;;;;3.59;75.67;95998.16;5046856;28;20049;-83
2022/01/14 09:34:38;;;;;;;6.22;2.00;;;;;;;3.49;76.30;95982.13;5051357;28;20505;-80
2022/01/14 09:37:05;;;;;;;4.65;1.63;;;;;;;3.47;75.79;95974.44;5052234;28;20059;-80
2022/01/14 09:39:34;;;;;;;3.60;1.63;;;;;;;3.63;75.92;95984.28;5052688;28;20091;-80
2022/01/14 09:42:04;;;;;;;2.75;1.60;;;;;;;3.84;75.18;95977.59;5052775;28;20075;-81
2022/01/14 09:44:31;;;;;;;6.00;2.07;;;;;;;3.93;74.61;95961.81;5054480;28;20103;-83
2022/01/14 09:46:58;;;;;;;3.75;1.80;;;;;;;3.94;75.29;95967.84;5056649;28;20048;-80
2022/01/14 09:49:25;;;;;;;13.15;2.05;;;;;;;3.85;75.32;95950.88;5062178;28;20063;-80
2022/01/14 09:51:52;;;;;;;4.30;2.42;;;;;;;3.85;75.36;95962.06;5062536;28;20052;-80
2022/01/14 09:54:18;;;;;;;10.10;3.72;;;;;;;3.80;75.03;95945.88;5056981;28;20486;-83
2022/01/14 09:56:46;;;;;;;5.28;2.78;;;;;;;3.67;75.49;95949.75;5057167;28;20053;-85
2022/01/14 09:59:12;;;;;;;9.38;3.58;;;;;;;3.62;75.52;95939.56;5056584;28;20065;-85
2022/01/14 10:01:44;;;;;;;15.48;6.05;;;;;;;3.62;75.19;95918.91;5055421;28;20480;-84
2022/01/14 10:04:18;;;;;;;16.80;6.18;;;;;;;3.71;75.61;95916.94;5055555;28;20051;-86
2022/01/14 10:06:46;;;;;;;3.95;2.40;;;;;;;3.68;75.25;95913.56;5057004;28;20076;-83
2022/01/14 10:09:36;;;;;;;3.85;2.50;;;;;;;3.64;75.42;95904.22;5054898;28;20407;-82
2022/01/14 10:12:08;;;;;;;;;;;;;;;3.53;75.71;95890.84;5052881;28;20072;-86
2022/01/14 10:14:38;;;;;;;11.90;4.90;;;;;;;3.61;74.96;95896.56;5055683;28;19925;-82
2022/01/14 10:17:08;;;;;;;10.00;5.32;;;;;;;3.63;75.25;95894.78;5055403;28;20087;-84
2022/01/14 10:19:40;;;;;;;12.90;4.93;;;;;;;3.66;74.92;95891.28;5055681;28;20523;-86
2022/01/14 10:22:28;;;;;;;11.35;4.25;;;;;;;3.57;75.01;95871.78;5035038;28;20144;-89
2022/01/14 10:25:10;;;;;;;9.98;4.25;;;;;;;3.62;74.73;95874.22;5039085;28;20122;-84
2022/01/14 10:27:37;;;;;;;7.20;3.45;;;;;;;3.53;74.83;95854.72;5057055;28;20049;-86
2022/01/14 10:30:23;;;;;;;9.30;3.25;;;;;;;3.70;74.67;95851.56;5055246;28;20064;-85
2022/01/14 10:32:58;;;;;;;7.18;3.00;;;;;;;3.71;74.55;95839.50;5054951;28;20068;-82
2022/01/14 10:35:28;;;;;;;4.00;2.13;;;;;;;3.65;74.31;95825.06;5055445;28;20442;-83
2022/01/14 10:37:59;;;;;;;4.07;2.55;;;;;;;3.66;74.69;95835.34;5054957;28;20391;-84
2022/01/14 10:40:32;;;;;;;7.20;3.50;;;;;;;3.69;74.17;95834.38;5056321;28;20088;-84
2022/01/14 10:43:01;;;;;;;7.18;3.58;;;;;;;3.64;74.32;95823.38;5057557;28;20056;-82
2022/01/14 10:45:50;;;;;;;6.82;3.35;;;;;;;3.59;74.75;95830.41;5054941;28;20049;-82
2022/01/14 10:48:33;;;;;;;6.80;2.50;;;;;;;3.45;74.19;95805.94;5037508;28;20052;-84
2022/01/14 10:51:04;;;;;;;6.32;2.88;;;;;;;3.60;74.34;95816.63;5054529;28;20053;-85
2022/01/14 10:53:37;;;;;;;5.03;2.38;;;;;;;3.48;74.16;95808.44;5055978;28;20072;-83
2022/01/14 10:56:09;;;;;;;4.05;2.05;;;;;;;3.53;74.26;95804.81;5037409;28;20057;-81
2022/01/14 10:58:44;;;;;;;4.13;2.20;;;;;;;3.48;74.31;95792.06;5060612;28;20056;-83
2022/01/14 11:01:15;;;;;;;3.88;1.85;;;;;;;3.47;74.14;95783.50;5054578;28;20048;-81
2022/01/14 11:03:47;;;;;;;4.68;1.75;;;;;;;3.49;74.31;95793.78;5054859;28;20056;-81
2022/01/14 11:06:25;;;;;;;1.50;1.40;;;;;;;3.54;74.42;95798.78;5053384;28;20060;-83
2022/01/14 11:09:11;;;;;;;3.17;1.45;;;;;;;3.42;74.03;95771.63;5034339;28;20175;-80
2022/01/14 11:11:41;;;;;;;3.38;1.70;;;;;;;3.52;73.90;95777.34;5046652;28;20061;-79
2022/01/14 11:14:08;;;;;;;2.20;1.42;;;;;;;3.58;74.16;95771.97;5066187;28;20049;-82
2022/01/14 11:16:36;;;;;;;1.70;1.30;;;;;;;3.60;73.62;95765.88;5039691;28;20053;-85
2022/01/14 11:19:07;;;;;;;4.20;1.40;;;;;;;3.55;73.60;95764.31;5046536;28;20088;-85
2022/01/14 11:24:30;;;;;;;8.80;3.65;;;;;;;3.47;73.21;95755.13;5049015;28;20545;-85
2022/01/14 11:27:25;;;;;;;6.45;2.90;;;;;;;3.46;73.07;95765.47;5049096;28;20450;-79
2022/01/14 11:29:58;;;;;;;3.15;1.60;;;;;;;3.36;72.85;95757.22;5053433;28;20053;-80
2022/01/14 11:32:25;;;;;;;1.70;1.38;;;;;;;3.37;72.80;95758.06;5053480;28;20169;-81
2022/01/14 11:34:53;;;;;;;2.30;1.00;;;;;;;3.34;72.30;95759.00;5050782;28;20147;-82
2022/01/14 11:37:29;;;;;;;2.35;1.10;;;;;;;3.26;71.97;95742.94;5053994;28;20049;-80
2022/01/14 11:40:03;;;;;;;1.63;0.90;;;;;;;3.19;72.14;95744.06;5053852;28;20052;-80
2022/01/14 11:42:46;;;;;;;3.70;1.15;;;;;;;3.07;71.68;95729.81;5056134;28;20099;-81
2022/01/14 11:45:15;;;;;;;2.58;1.23;;;;;;;3.07;71.88;95742.69;5041588;28;20119;-83
2022/01/14 11:47:47;;;;;;;2.63;1.70;;;;;;;3.00;71.45;95736.91;5053519;28;20057;-88
2022/01/14 11:50:23;;;;;;;4.70;2.60;;;;;;;2.59;71.82;95684.13;5053579;28;20063;-83
2022/01/14 11:52:52;;;;;;;7.28;3.47;;;;;;;2.93;72.08;95727.69;5053511;28;20503;-79
2022/01/14 11:55:19;;;;;;;8.07;3.47;;;;;;;3.00;71.48;95733.50;5035899;28;20052;-86
2022/01/14 11:57:58;;;;;;;3.63;2.47;;;;;;;3.01;71.63;95725.72;5054217;28;20494;-80
2022/01/14 12:00:29;;;;;;;3.28;2.22;;;;;;;3.01;71.49;95725.72;5053764;28;20068;-82
2022/01/14 12:03:07;;;;;;;4.78;1.77;;;;;;;2.98;71.46;95720.66;5051336;28;20090;-79
2022/01/14 12:05:37;;;;;;;4.55;2.25;;;;;;;2.93;71.29;95709.66;5052130;28;20053;-82
2022/01/14 12:08:08;;;;;;;9.43;3.33;;;;;;;2.93;71.46;95716.56;5051994;28;20056;-84
2022/01/14 12:10:45;;;;;;;9.70;2.67;;;;;;;2.71;71.23;95688.03;5052062;28;20136;-83
2022/01/14 12:16:05;;;;;;;;;;;;;;;2.54;71.78;95702.31;5048243;28;20049;-82
2022/01/14 12:18:57;;;;;;;6.07;2.60;;;;;;;2.51;71.53;95681.78;5049157;28;20023;-81
2022/01/14 12:21:48;;;;;;;6.80;2.33;;;;;;;2.44;70.78;95681.13;5049877;28;20078;-77
2022/01/14 12:24:19;;;;;;;5.85;2.50;;;;;;;2.42;70.39;95676.91;5041949;28;20052;-82